Time;durP1;ratioP1;P1;durP2;ratioP2;P2;SDS_P1;SDS_P2;PMS_P1;PMS_P2;Temp;Humidity;BMP_temperature;BMP_pressure;BME280_temperature;BME280_humidity;BME280_pressure;Samples;Min_cycle;Max_cycle;Signal;HPM_P1;HPM_P2
2022/01/19 00:01:43;;;;;;;10.57;7.18;;;6.20;99.90;;;;;;5054794;28;20035;-51
2022/01/19 00:04:27;;;;;;;11.45;7.20;;;6.10;99.90;;;;;;5055572;28;20044;-53
2022/01/19 00:07:11;;;;;;;11.43;7.53;;;6.20;99.90;;;;;;5054740;28;20140;-50
2022/01/19 00:10:03;;;;;;;12.45;7.20;;;6.20;99.90;;;;;;5054159;28;20055;-50
2022/01/19 00:12:48;;;;;;;10.35;6.93;;;6.20;99.90;;;;;;5054587;28;20155;-48
2022/01/19 00:15:32;;;;;;;10.98;6.65;;;6.20;99.90;;;;;;5053451;28;20040;-54
2022/01/19 00:18:20;;;;;;;9.27;6.77;;;6.30;99.90;;;;;;5054894;28;20091;-49
2022/01/19 00:21:05;;;;;;;11.43;7.18;;;6.20;99.90;;;;;;5064855;28;20048;-51
2022/01/19 00:23:49;;;;;;;10.27;6.50;;;6.20;99.90;;;;;;5054888;28;20028;-53
2022/01/19 00:26:33;;;;;;;12.77;7.05;;;6.30;99.90;;;;;;5054968;28;20094;-50
2022/01/19 00:29:17;;;;;;;11.07;7.45;;;6.20;99.90;;;;;;5054835;28;20503;-49
2022/01/19 00:32:02;;;;;;;11.75;6.93;;;6.20;99.90;;;;;;5053860;28;20051;-53
2022/01/19 00:34:46;;;;;;;15.77;7.80;;;6.10;99.90;;;;;;5054996;28;20043;-49
2022/01/19 00:37:30;;;;;;;11.45;7.55;;;6.10;99.90;;;;;;5054293;28;20040;-50
2022/01/19 00:40:15;;;;;;;14.50;8.65;;;6.10;99.90;;;;;;5054588;28;20086;-50
2022/01/19 00:42:59;;;;;;;11.52;7.53;;;6.10;99.90;;;;;;5054754;28;20538;-49
2022/01/19 00:45:44;;;;;;;11.30;7.47;;;6.10;99.90;;;;;;5054182;28;20032;-48
2022/01/19 00:48:28;;;;;;;10.88;7.03;;;6.10;99.90;;;;;;5054692;28;20031;-51
2022/01/19 00:51:12;;;;;;;12.50;8.63;;;6.10;99.90;;;;;;5054254;28;20067;-48
2022/01/19 00:53:56;;;;;;;13.00;8.00;;;6.10;99.90;;;;;;5053844;28;20044;-50
2022/01/19 00:56:40;;;;;;;11.57;8.13;;;6.10;99.90;;;;;;5053670;28;20523;-48
2022/01/19 00:59:24;;;;;;;12.90;8.40;;;6.00;99.90;;;;;;5054104;28;20048;-47
2022/01/19 01:02:09;;;;;;;12.40;9.15;;;6.00;99.90;;;;;;5054593;28;20468;-48
2022/01/19 01:04:52;;;;;;;21.30;9.35;;;6.00;99.90;;;;;;5053108;28;20032;-51
2022/01/19 01:07:38;;;;;;;12.13;8.43;;;6.10;99.90;;;;;;5066956;28;20031;-49
2022/01/19 01:10:23;;;;;;;12.40;8.15;;;6.10;99.90;;;;;;5053890;28;20036;-48
2022/01/19 01:16:33;;;;;;;14.43;7.53;;;6.10;99.90;;;;;;5036556;28;20407;-52
2022/01/19 01:19:17;;;;;;;11.70;7.45;;;6.10;99.90;;;;;;5053661;28;20416;-49
2022/01/19 01:22:01;;;;;;;14.85;7.35;;;6.10;99.90;;;;;;5053649;28;20455;-54
2022/01/19 01:24:45;;;;;;;12.27;7.97;;;6.20;99.90;;;;;;5054865;28;20499;-51
2022/01/19 01:27:32;;;;;;;10.90;7.78;;;6.10;99.90;;;;;;5052834;28;20048;-49
2022/01/19 01:30:16;;;;;;;11.63;7.63;;;6.10;99.90;;;;;;5054336;28;20088;-52
2022/01/19 01:33:02;;;;;;;10.60;8.05;;;6.10;99.90;;;;;;5033974;28;20047;-47
2022/01/19 01:35:47;;;;;;;;;;;6.10;99.90;;;;;;5052839;28;20052;-51
2022/01/19 01:38:32;;;;;;;11.60;7.47;;;6.00;99.90;;;;;;5048635;28;19951;-49
2022/01/19 01:41:19;;;;;;;12.55;8.95;;;6.00;99.90;;;;;;5048836;28;20031;-51
2022/01/19 01:44:05;;;;;;;10.90;7.63;;;6.10;99.90;;;;;;5049218;28;20048;-47
2022/01/19 01:46:57;;;;;;;14.60;8.40;;;6.10;99.90;;;;;;5052660;28;20084;-55
2022/01/19 01:55:33;;;;;;;11.48;6.82;;;6.10;99.90;;;;;;5051266;28;20086;-51
2022/01/19 01:58:17;;;;;;;11.25;7.10;;;6.00;99.90;;;;;;5050799;28;20090;-52
2022/01/19 02:01:03;;;;;;;10.25;6.38;;;5.90;99.90;;;;;;5047935;28;20093;-50
2022/01/19 02:03:47;;;;;;;8.63;6.47;;;5.90;99.90;;;;;;5050278;28;20089;-49
2022/01/19 02:06:35;;;;;;;10.05;7.15;;;5.90;99.90;;;;;;5052351;28;20032;-48
2022/01/19 02:09:24;;;;;;;12.05;7.53;;;5.80;99.90;;;;;;5052193;28;20040;-49
2022/01/19 02:24:43;;;;;;;11.68;8.32;;;5.60;99.90;;;;;;5034027;28;20033;-50
2022/01/19 02:31:09;;;;;;;11.63;8.13;;;5.50;99.90;;;;;;5054566;28;20037;-50
2022/01/19 02:40:11;;;;;;;11.65;7.63;;;5.40;99.90;;;;;;5055501;28;20048;-51
2022/01/19 02:43:07;;;;;;;12.25;7.93;;;5.30;99.90;;;;;;5056170;28;20048;-48
2022/01/19 02:52:19;;;;;;;12.80;7.40;;;5.20;99.90;;;;;;5013973;28;20037;-54
2022/01/19 02:55:04;;;;;;;12.38;7.85;;;5.10;99.90;;;;;;5036709;28;20055;-50
2022/01/19 02:57:48;;;;;;;11.13;7.82;;;5.00;99.90;;;;;;5038457;28;20500;-48
2022/01/19 03:09:48;;;;;;;16.35;9.45;;;4.90;99.90;;;;;;5036678;28;20028;-48
2022/01/19 03:12:34;;;;;;;11.68;8.45;;;4.80;99.90;;;;;;5035282;28;20064;-49
2022/01/19 03:15:21;;;;;;;11.50;8.07;;;4.80;99.90;;;;;;5042588;28;20040;-50
2022/01/19 03:18:07;;;;;;;15.65;9.18;;;4.90;99.90;;;;;;5056027;28;20047;-49
2022/01/19 03:20:53;;;;;;;12.57;8.75;;;4.90;99.90;;;;;;5054829;28;20102;-49
2022/01/19 03:23:40;;;;;;;14.43;8.60;;;4.80;99.90;;;;;;5056522;28;20039;-49
2022/01/19 03:26:27;;;;;;;11.93;8.48;;;4.70;99.90;;;;;;5056070;28;20055;-50
2022/01/19 03:29:33;;;;;;;11.63;8.27;;;4.70;99.90;;;;;;5054822;28;20036;-47
2022/01/19 03:32:20;;;;;;;11.32;8.13;;;4.70;99.90;;;;;;5036009;28;20043;-47
2022/01/19 03:35:08;;;;;;;12.40;8.57;;;4.70;99.90;;;;;;5037844;28;20072;-48
2022/01/19 03:37:56;;;;;;;11.43;8.90;;;4.70;99.90;;;;;;5055796;28;20087;-52
2022/01/19 03:40:43;;;;;;;14.15;8.57;;;4.70;99.90;;;;;;5055770;28;20095;-53
2022/01/19 03:43:30;;;;;;;12.77;8.77;;;4.70;99.90;;;;;;5055758;28;20108;-50
2022/01/19 03:47:07;;;;;;;16.95;9.20;;;4.70;99.90;;;;;;5054347;28;20109;-53
2022/01/19 03:49:33;;;;;;;13.02;9.65;;;4.70;99.90;;;;;;5054414;28;20113;-51
2022/01/19 03:52:22;;;;;;;13.18;9.32;;;4.70;99.90;;;;;;5055510;28;20031;-50
2022/01/19 03:55:11;;;;;;;13.45;8.75;;;4.60;99.90;;;;;;5054517;28;20127;-50
2022/01/19 03:57:57;;;;;;;13.40;9.75;;;4.70;99.90;;;;;;5055197;28;20047;-48
2022/01/19 04:00:53;;;;;;;12.98;9.18;;;4.60;99.90;;;;;;5056976;28;20051;-49
2022/01/19 04:06:52;;;;;;;12.05;9.38;;;4.70;99.90;;;;;;5057297;28;20566;-51
2022/01/19 04:09:45;;;;;;;13.48;8.93;;;4.60;99.90;;;;;;5056140;28;20033;-53
2022/01/19 04:12:48;;;;;;;15.88;10.43;;;4.60;99.90;;;;;;5055066;28;20044;-49
2022/01/19 04:15:36;;;;;;;11.15;8.38;;;4.60;99.90;;;;;;5034956;28;20571;-48
2022/01/19 04:18:23;;;;;;;13.10;8.70;;;4.60;99.90;;;;;;5039671;28;20392;-49
2022/01/19 04:21:09;;;;;;;14.25;8.95;;;4.50;99.90;;;;;;5054519;28;20041;-53
2022/01/19 04:23:55;;;;;;;10.57;8.55;;;4.50;99.90;;;;;;5054602;28;20060;-48
2022/01/19 04:26:44;;;;;;;12.60;9.25;;;4.50;99.90;;;;;;5054615;28;20036;-52
2022/01/19 04:29:28;;;;;;;13.73;9.30;;;4.40;99.90;;;;;;5054712;28;20039;-50
2022/01/19 04:32:17;;;;;;;13.23;9.57;;;4.40;99.90;;;;;;5054596;28;20082;-54
2022/01/19 04:35:06;;;;;;;12.23;9.20;;;4.30;99.90;;;;;;5054798;28;20039;-50
2022/01/19 05:02:23;;;;;;;11.20;8.10;;;3.90;99.90;;;;;;5050599;28;20032;-49
2022/01/19 05:14:15;;;;;;;10.30;8.10;;;3.80;99.90;;;;;;5053825;28;20444;-49
2022/01/19 05:16:59;;;;;;;10.00;7.93;;;3.70;99.90;;;;;;5053296;28;20606;-53
2022/01/19 05:19:46;;;;;;;9.98;8.02;;;3.80;99.90;;;;;;5053562;28;20059;-48
2022/01/19 05:22:31;;;;;;;11.45;7.97;;;3.80;99.90;;;;;;5053515;28;20040;-50
2022/01/19 05:25:15;;;;;;;10.85;8.10;;;3.80;99.90;;;;;;5053562;28;20039;-49
2022/01/19 05:27:59;;;;;;;8.93;7.27;;;3.70;99.90;;;;;;5033712;28;20515;-48
2022/01/19 05:30:43;;;;;;;10.25;7.70;;;3.80;99.90;;;;;;5040005;28;20070;-49
2022/01/19 05:33:28;;;;;;;10.45;7.93;;;3.80;99.90;;;;;;5052445;28;20040;-52
2022/01/19 05:36:12;;;;;;;10.50;8.13;;;3.80;99.90;;;;;;5047907;28;20036;-48
2022/01/19 05:38:56;;;;;;;13.88;10.18;;;3.80;99.90;;;;;;5053753;28;20043;-50
2022/01/19 05:41:40;;;;;;;14.45;10.52;;;3.80;99.90;;;;;;5052555;28;20039;-51
2022/01/19 05:44:24;;;;;;;13.90;9.43;;;3.80;99.90;;;;;;5053387;28;20072;-48
2022/01/19 05:47:08;;;;;;;11.50;9.15;;;3.80;99.90;;;;;;5054152;28;20329;-48
2022/01/19 05:49:52;;;;;;;11.73;9.93;;;3.70;99.90;;;;;;5049680;28;20384;-51
2022/01/19 05:52:36;;;;;;;11.63;9.35;;;3.60;99.90;;;;;;5053179;28;20036;-49
2022/01/19 05:55:24;;;;;;;13.80;10.18;;;3.60;99.90;;;;;;5054205;28;20044;-49
2022/01/19 05:58:09;;;;;;;25.90;16.83;;;3.60;99.90;;;;;;5048466;28;20040;-50
2022/01/19 06:00:53;;;;;;;11.80;9.60;;;3.50;99.90;;;;;;5040193;28;20056;-50
2022/01/19 06:03:37;;;;;;;12.60;9.73;;;3.40;99.90;;;;;;5053036;28;20040;-53
2022/01/19 06:06:21;;;;;;;15.18;11.65;;;3.40;99.90;;;;;;5053118;28;20516;-52
2022/01/19 06:09:20;;;;;;;13.53;11.90;;;3.40;99.90;;;;;;5052420;28;20104;-51
2022/01/19 06:12:11;;;;;;;13.68;11.00;;;3.40;99.90;;;;;;5051170;28;20086;-54
2022/01/19 06:14:55;;;;;;;13.52;11.00;;;3.40;99.90;;;;;;5053010;28;20044;-50
2022/01/19 06:17:39;;;;;;;13.52;11.77;;;3.40;99.90;;;;;;5051882;28;20036;-50
2022/01/19 06:20:23;;;;;;;13.45;11.68;;;3.30;99.90;;;;;;5052236;28;20283;-48
2022/01/19 06:23:07;;;;;;;13.67;12.20;;;3.20;99.90;;;;;;5052225;28;20036;-49
2022/01/19 06:25:53;;;;;;;14.93;12.70;;;3.20;99.90;;;;;;5052573;28;20095;-49
2022/01/19 06:28:37;;;;;;;17.65;14.43;;;3.20;99.90;;;;;;5051861;28;20109;-50
2022/01/19 06:31:21;;;;;;;16.23;13.38;;;3.00;99.90;;;;;;5043781;28;20115;-50
2022/01/19 06:34:05;;;;;;;16.23;14.40;;;3.10;99.90;;;;;;5046770;28;20083;-51
2022/01/19 06:36:52;;;;;;;17.50;14.02;;;3.10;99.90;;;;;;5053273;28;20096;-49
2022/01/19 06:39:37;;;;;;;20.17;14.57;;;3.10;99.90;;;;;;5052421;28;20610;-50
2022/01/19 06:42:21;;;;;;;17.15;14.75;;;2.90;99.90;;;;;;5052938;28;20403;-48
2022/01/19 06:45:06;;;;;;;15.85;14.23;;;2.90;99.90;;;;;;5053328;28;20618;-48
2022/01/19 06:47:51;;;;;;;16.20;14.45;;;2.90;99.90;;;;;;5051816;28;20043;-51
2022/01/19 06:50:35;;;;;;;19.02;14.90;;;2.90;99.90;;;;;;5044311;28;20467;-51
2022/01/19 06:53:20;;;;;;;17.90;14.25;;;2.80;99.90;;;;;;5052370;28;20039;-53
2022/01/19 06:56:06;;;;;;;16.27;14.50;;;2.80;99.90;;;;;;5052297;28;20048;-51
2022/01/19 06:58:50;;;;;;;17.17;15.18;;;2.80;99.90;;;;;;5052009;28;20105;-53
2022/01/19 07:01:35;;;;;;;16.30;14.52;;;2.80;99.90;;;;;;5051746;28;20251;-49
2022/01/19 07:04:20;;;;;;;18.00;15.80;;;2.90;99.90;;;;;;5052048;28;20040;-48
2022/01/19 07:07:04;;;;;;;18.13;15.93;;;2.90;99.90;;;;;;5052162;28;20064;-52
2022/01/19 07:09:49;;;;;;;18.33;16.33;;;2.80;99.90;;;;;;5050886;28;20036;-47
2022/01/19 07:12:33;;;;;;;;;;;2.80;99.90;;;;;;5051824;28;20094;-47
2022/01/19 07:15:17;;;;;;;20.27;16.05;;;2.80;99.90;;;;;;5052308;28;20011;-49
2022/01/19 07:18:02;;;;;;;20.05;16.67;;;2.90;99.90;;;;;;5054944;28;20052;-49
2022/01/19 07:20:46;;;;;;;20.25;16.55;;;2.90;99.90;;;;;;5056436;28;20043;-50
2022/01/19 07:23:30;;;;;;;22.33;16.05;;;2.90;99.90;;;;;;5055991;28;20035;-48
2022/01/19 07:26:14;;;;;;;18.17;15.73;;;2.90;99.90;;;;;;5056709;28;20040;-48
2022/01/19 07:28:58;;;;;;;18.65;16.48;;;2.80;99.90;;;;;;5068661;28;20452;-51
2022/01/19 07:31:43;;;;;;;18.65;15.70;;;2.80;99.90;;;;;;5055142;28;20524;-48
2022/01/19 07:34:28;;;;;;;24.83;18.52;;;2.80;99.90;;;;;;5046462;28;20076;-50
2022/01/19 07:37:13;;;;;;;25.85;20.42;;;2.70;99.90;;;;;;5054807;28;20043;-49
2022/01/19 07:39:58;;;;;;;;;;;2.80;99.90;;;;;;5049509;28;20510;-50
2022/01/19 07:42:42;;;;;;;15.45;13.57;;;2.80;99.90;;;;;;5039091;28;20355;-51
2022/01/19 07:45:26;;;;;;;20.30;15.77;;;2.80;99.90;;;;;;5052971;28;20454;-49
2022/01/19 07:48:12;;;;;;;15.88;13.68;;;2.80;99.90;;;;;;5053466;28;20044;-52
2022/01/19 07:50:58;;;;;;;15.27;12.38;;;2.80;99.90;;;;;;5064536;28;20055;-48
2022/01/19 07:53:43;;;;;;;14.70;13.10;;;2.80;99.90;;;;;;5054932;28;20558;-54
2022/01/19 07:56:27;;;;;;;;;;;2.80;99.90;;;;;;5055486;28;20429;-53
2022/01/19 07:59:12;;;;;;;16.27;11.68;;;2.80;99.90;;;;;;5053495;28;19928;-53
2022/01/19 08:02:01;;;;;;;13.05;10.68;;;2.70;99.90;;;;;;5053448;28;20043;-51
2022/01/19 08:04:47;;;;;;;12.40;10.45;;;2.60;99.90;;;;;;5053504;28;20032;-47
2022/01/19 08:07:55;;;;;;;13.60;10.63;;;2.60;99.90;;;;;;5033733;28;20054;-52
2022/01/19 08:14:24;;;;;;;15.32;9.65;;;2.60;99.90;;;;;;5042058;28;20036;-48
2022/01/19 08:17:12;;;;;;;17.42;11.25;;;2.60;99.90;;;;;;5052884;28;20400;-50
2022/01/19 08:20:01;;;;;;;17.95;10.80;;;2.70;99.90;;;;;;5047417;28;20570;-54
2022/01/19 08:22:48;;;;;;;18.40;11.45;;;2.70;99.90;;;;;;5052349;28;20043;-52
2022/01/19 08:25:39;;;;;;;15.07;11.60;;;2.70;99.90;;;;;;5050105;28;20039;-52
2022/01/19 08:28:25;;;;;;;14.02;11.18;;;2.80;99.90;;;;;;5053242;28;20138;-56
2022/01/19 08:31:09;;;;;;;14.95;10.75;;;2.80;99.90;;;;;;5054623;28;20071;-51
2022/01/19 08:33:54;;;;;;;17.15;12.05;;;2.80;99.90;;;;;;5054705;28;20458;-50
2022/01/19 08:36:38;;;;;;;16.48;11.80;;;2.80;99.90;;;;;;5052540;28;20036;-54
2022/01/19 08:39:24;;;;;;;16.52;13.40;;;2.90;99.90;;;;;;5053255;28;20094;-54
2022/01/19 08:42:11;;;;;;;15.45;12.40;;;2.80;99.90;;;;;;5053093;28;20090;-49
2022/01/19 08:45:05;;;;;;;17.92;14.32;;;2.90;99.90;;;;;;5053669;28;20039;-49
2022/01/19 08:47:50;;;;;;;15.15;11.82;;;2.90;99.90;;;;;;5054080;28;20578;-53
2022/01/19 08:50:35;;;;;;;16.17;11.40;;;3.00;99.90;;;;;;5053731;28;20039;-55
2022/01/19 08:53:20;;;;;;;14.93;11.25;;;2.90;99.90;;;;;;5051249;28;20064;-49
2022/01/19 08:56:04;;;;;;;;;;;2.90;99.90;;;;;;5053967;28;20078;-52
2022/01/19 08:58:48;;;;;;;14.52;11.88;;;2.90;99.90;;;;;;5052760;28;19915;-55
2022/01/19 09:01:32;;;;;;;14.20;11.13;;;2.90;99.90;;;;;;5053732;28;20048;-49
2022/01/19 09:04:18;;;;;;;14.45;11.15;;;3.00;99.90;;;;;;5053486;28;20029;-48
2022/01/19 09:07:03;;;;;;;15.00;10.90;;;3.00;99.90;;;;;;5051489;28;20086;-48
2022/01/19 09:09:47;;;;;;;15.80;11.48;;;2.90;99.90;;;;;;5060204;28;20123;-50
2022/01/19 09:12:31;;;;;;;12.55;10.35;;;3.00;99.90;;;;;;5056135;28;20515;-50
2022/01/19 09:15:17;;;;;;;14.93;11.30;;;3.00;99.90;;;;;;5048062;28;20044;-50
2022/01/19 09:18:02;;;;;;;16.00;12.25;;;3.00;99.90;;;;;;5052059;28;20052;-49
2022/01/19 09:20:47;;;;;;;14.63;11.32;;;3.10;99.90;;;;;;5050481;28;20070;-49
2022/01/19 09:23:31;;;;;;;14.85;11.15;;;3.10;99.90;;;;;;5052195;28;20424;-53
2022/01/19 09:26:15;;;;;;;14.35;11.63;;;3.10;99.90;;;;;;5051755;28;20095;-53
2022/01/19 09:28:59;;;;;;;11.90;9.70;;;3.20;99.90;;;;;;5052056;28;20620;-50
2022/01/19 09:31:44;;;;;;;14.18;10.80;;;3.20;99.90;;;;;;5052419;28;20036;-48
2022/01/19 09:34:28;;;;;;;13.38;10.20;;;3.30;99.90;;;;;;5051783;28;20465;-53
2022/01/19 09:37:12;;;;;;;12.65;10.25;;;3.30;99.90;;;;;;5050311;28;20112;-51
2022/01/19 09:39:56;;;;;;;11.48;9.77;;;3.40;99.90;;;;;;5048765;28;20120;-51
2022/01/19 09:42:40;;;;;;;12.20;9.55;;;3.40;99.90;;;;;;5050898;28;20166;-58
2022/01/19 09:45:25;;;;;;;12.13;9.95;;;3.30;99.90;;;;;;5021236;28;20506;-47
2022/01/19 09:48:09;;;;;;;12.00;9.97;;;3.30;99.90;;;;;;5045126;28;21292;-51
2022/01/19 09:50:56;;;;;;;10.55;9.38;;;3.30;99.90;;;;;;5042408;28;20055;-49
2022/01/19 09:53:41;;;;;;;11.50;9.68;;;3.40;99.90;;;;;;5051702;28;20445;-50
2022/01/19 09:56:26;;;;;;;12.45;10.23;;;3.40;99.90;;;;;;5052449;28;20079;-49
2022/01/19 09:59:15;;;;;;;11.88;10.18;;;3.40;99.90;;;;;;5051473;28;20068;-52
2022/01/19 10:02:08;;;;;;;11.15;9.60;;;3.40;99.90;;;;;;5050486;28;20231;-50
2022/01/19 10:04:52;;;;;;;11.95;9.05;;;3.50;99.90;;;;;;5032012;28;20456;-48
2022/01/19 10:07:36;;;;;;;10.88;9.00;;;3.50;99.90;;;;;;5052075;28;20135;-51
2022/01/19 10:10:20;;;;;;;13.52;10.18;;;3.50;99.90;;;;;;5051004;28;20039;-54
2022/01/19 10:19:12;;;;;;;10.30;8.48;;;3.70;99.90;;;;;;5050875;28;20036;-55
2022/01/19 10:22:17;;;;;;;9.77;8.60;;;3.70;99.90;;;;;;5051776;28;20087;-47
2022/01/19 10:25:05;;;;;;;9.95;8.60;;;3.70;99.90;;;;;;5051678;28;20562;-50
2022/01/19 10:27:50;;;;;;;9.48;8.18;;;3.80;99.90;;;;;;5051015;28;20078;-51
2022/01/19 10:30:34;;;;;;;9.95;8.20;;;3.80;99.90;;;;;;5050098;28;20143;-49
2022/01/19 10:33:20;;;;;;;9.68;7.80;;;3.80;99.90;;;;;;5048313;28;20040;-52
2022/01/19 10:36:04;;;;;;;;;;;3.90;99.90;;;;;;5037416;28;20036;-49
2022/01/19 10:38:57;;;;;;;8.48;7.57;;;3.90;99.90;;;;;;5052899;28;19962;-48
2022/01/19 10:42:03;;;;;;;10.48;9.13;;;4.00;99.90;;;;;;5051793;28;20087;-49
2022/01/19 10:44:51;;;;;;;12.02;9.60;;;4.10;99.90;;;;;;5053109;28;20039;-51
2022/01/19 10:47:49;;;;;;;11.60;10.23;;;4.20;99.90;;;;;;5052662;28;20408;-51
2022/01/19 10:50:33;;;;;;;11.57;9.52;;;4.20;99.90;;;;;;5053881;28;20054;-54
2022/01/19 10:53:19;;;;;;;11.15;9.55;;;4.20;99.90;;;;;;5056500;28;20029;-51
2022/01/19 10:56:05;;;;;;;12.20;10.38;;;4.30;99.90;;;;;;5056521;28;20055;-50
2022/01/19 10:59:12;;;;;;;12.35;9.82;;;4.50;99.90;;;;;;5056431;28;20408;-51
2022/01/19 11:02:00;;;;;;;10.65;9.52;;;4.50;99.90;;;;;;5055576;28;20039;-49
2022/01/19 11:04:45;;;;;;;11.48;8.50;;;4.60;99.90;;;;;;5041243;28;20040;-55
2022/01/19 11:07:30;;;;;;;10.95;9.02;;;4.70;99.90;;;;;;5056609;28;20048;-51
2022/01/19 11:10:18;;;;;;;11.10;9.35;;;4.50;99.90;;;;;;5055620;28;20044;-53
2022/01/19 11:13:05;;;;;;;11.50;9.18;;;4.40;99.90;;;;;;5052762;28;20031;-52
2022/01/19 11:15:49;;;;;;;10.25;8.75;;;4.30;99.90;;;;;;5056075;28;20139;-50
2022/01/19 11:18:36;;;;;;;10.82;8.90;;;4.30;99.90;;;;;;5056299;28;20036;-53
2022/01/19 11:21:25;;;;;;;10.38;9.27;;;4.40;99.90;;;;;;5056041;28;20094;-48
2022/01/19 11:25:11;;;;;;;10.50;8.60;;;4.50;99.90;;;;;;5055917;28;20112;-51
2022/01/19 11:27:56;;;;;;;12.10;8.15;;;4.70;99.90;;;;;;5029308;28;20114;-51
2022/01/19 11:30:46;;;;;;;9.13;7.53;;;4.90;99.90;;;;;;5055210;28;20040;-53
2022/01/19 11:33:43;;;;;;;9.52;7.20;;;4.80;99.90;;;;;;5055725;28;20087;-49
2022/01/19 11:36:42;;;;;;;7.95;6.68;;;4.80;99.90;;;;;;5055751;28;20055;-54
2022/01/19 11:39:30;;;;;;;10.73;7.03;;;4.70;99.90;;;;;;5055441;28;20040;-49
2022/01/19 11:42:20;;;;;;;7.47;6.68;;;4.80;99.90;;;;;;5054491;28;20037;-56
2022/01/19 11:45:26;;;;;;;9.40;7.15;;;4.90;99.90;;;;;;5056228;28;20082;-54
2022/01/19 11:48:14;;;;;;;;;;;5.00;99.90;;;;;;5056233;28;20024;-53
2022/01/19 11:51:25;;;;;;;10.02;6.72;;;5.30;99.90;;;;;;5055584;28;19982;-51
2022/01/19 11:54:29;;;;;;;8.23;6.95;;;5.50;99.90;;;;;;5051414;28;21660;-49
2022/01/19 11:57:34;;;;;;;8.23;7.05;;;5.50;99.90;;;;;;5044038;28;20110;-49
2022/01/19 12:00:31;;;;;;;7.13;6.40;;;5.40;99.90;;;;;;5048393;28;20061;-50
2022/01/19 12:03:23;;;;;;;6.95;6.20;;;5.60;99.90;;;;;;5040594;28;20105;-49
2022/01/19 12:06:07;;;;;;;8.15;6.70;;;5.60;99.90;;;;;;5055274;28;20048;-50
2022/01/19 12:08:56;;;;;;;8.77;6.63;;;5.70;99.90;;;;;;5055016;28;20075;-51
2022/01/19 12:11:46;;;;;;;10.05;6.88;;;5.80;99.90;;;;;;5054805;28;20044;-51
2022/01/19 12:14:38;;;;;;;7.18;6.32;;;6.00;99.90;;;;;;5053803;28;20048;-49
2022/01/19 12:17:26;;;;;;;7.03;6.10;;;5.90;99.90;;;;;;5067800;28;20039;-50
2022/01/19 12:20:46;;;;;;;8.52;6.50;;;5.70;99.90;;;;;;5054859;28;20072;-51
2022/01/19 12:23:35;;;;;;;8.75;6.47;;;5.70;99.90;;;;;;5077895;28;20060;-53
2022/01/19 12:26:22;;;;;;;9.80;6.30;;;5.60;99.90;;;;;;5053145;28;20048;-54
2022/01/19 12:29:06;;;;;;;9.48;6.30;;;5.80;99.90;;;;;;5054583;28;20036;-52
2022/01/19 12:31:50;;;;;;;9.40;6.72;;;5.90;99.90;;;;;;5053260;28;20096;-52
2022/01/19 12:34:47;;;;;;;10.27;6.77;;;5.90;99.90;;;;;;5054455;28;20454;-52
2022/01/19 12:37:36;;;;;;;11.60;6.50;;;5.90;99.90;;;;;;5053767;28;20035;-49
2022/01/19 12:40:35;;;;;;;10.85;7.45;;;6.00;99.90;;;;;;5054795;28;20060;-50
2022/01/19 12:43:34;;;;;;;10.15;7.28;;;6.00;99.90;;;;;;5054769;28;20036;-52
2022/01/19 12:46:37;;;;;;;11.07;7.82;;;6.00;99.90;;;;;;5037602;28;20479;-50
2022/01/19 12:49:29;;;;;;;8.73;6.95;;;5.90;99.90;;;;;;5046643;28;20108;-51
2022/01/19 12:52:17;;;;;;;13.20;9.25;;;5.90;99.90;;;;;;5053761;28;20427;-55
2022/01/19 12:55:10;;;;;;;8.77;7.32;;;5.90;99.90;;;;;;5052576;28;20399;-49
2022/01/19 12:57:55;;;;;;;8.93;7.22;;;5.90;99.90;;;;;;5053412;28;20036;-51
2022/01/19 13:00:41;;;;;;;9.43;7.50;;;6.00;99.90;;;;;;5053039;28;20029;-50
2022/01/19 13:03:28;;;;;;;11.38;7.95;;;6.00;99.90;;;;;;5053260;28;20036;-52
2022/01/19 13:06:15;;;;;;;9.50;7.47;;;6.00;99.90;;;;;;5033038;28;20078;-52
2022/01/19 13:09:08;;;;;;;12.73;7.97;;;6.00;99.90;;;;;;5035983;28;20125;-54
2022/01/19 13:11:55;;;;;;;9.65;8.05;;;6.00;99.90;;;;;;5052107;28;20090;-55
2022/01/19 13:14:40;;;;;;;11.73;8.55;;;5.90;99.90;;;;;;5051770;28;20576;-54
2022/01/19 13:17:24;;;;;;;12.00;7.80;;;5.90;99.90;;;;;;5052282;28;20047;-53
2022/01/19 13:20:23;;;;;;;13.23;7.70;;;5.90;99.90;;;;;;5052111;28;20102;-52
2022/01/19 13:23:09;;;;;;;11.10;7.50;;;5.90;99.90;;;;;;5052733;28;20028;-53
2022/01/19 13:25:56;;;;;;;10.73;7.60;;;6.00;99.90;;;;;;5052359;28;20523;-53
2022/01/19 13:28:40;;;;;;;11.15;8.00;;;6.10;99.90;;;;;;5053276;28;20031;-58
2022/01/19 13:31:24;;;;;;;9.45;7.20;;;6.30;99.90;;;;;;5052576;28;20043;-56
2022/01/19 13:34:08;;;;;;;11.20;7.22;;;6.30;99.90;;;;;;5053424;28;20089;-54
2022/01/19 13:37:01;;;;;;;11.90;7.97;;;6.30;99.90;;;;;;5053493;28;20116;-57
2022/01/19 13:39:57;;;;;;;11.25;7.90;;;6.30;99.90;;;;;;5054786;28;20435;-52
2022/01/19 13:42:56;;;;;;;12.93;8.13;;;6.20;99.90;;;;;;5054614;28;20603;-54
2022/01/19 13:48:31;;;;;;;11.00;7.50;;;6.20;99.90;;;;;;5032344;28;20029;-56
2022/01/19 13:51:15;;;;;;;10.25;7.43;;;6.30;99.90;;;;;;5052246;28;20102;-51
2022/01/19 13:54:05;;;;;;;10.18;7.45;;;6.20;99.90;;;;;;5052428;28;20097;-56
2022/01/19 13:56:57;;;;;;;11.27;7.53;;;6.20;99.90;;;;;;5032556;28;20044;-55
2022/01/19 13:59:43;;;;;;;11.48;7.93;;;6.30;99.90;;;;;;5037273;28;20044;-55
2022/01/19 14:02:27;;;;;;;10.43;7.15;;;6.10;99.90;;;;;;5036702;28;20082;-54
2022/01/19 14:05:11;;;;;;;11.05;7.47;;;6.10;99.90;;;;;;5052059;28;20116;-56
2022/01/19 14:07:55;;;;;;;9.23;7.20;;;6.20;99.90;;;;;;5051788;28;20079;-54
2022/01/19 14:10:40;;;;;;;11.80;7.23;;;6.10;99.90;;;;;;5051652;28;20067;-55
2022/01/19 14:13:26;;;;;;;13.45;8.13;;;6.10;99.90;;;;;;5052009;28;20044;-56
2022/01/19 14:16:25;;;;;;;10.93;8.00;;;6.00;99.90;;;;;;5052077;28;20090;-53
2022/01/19 14:19:31;;;;;;;9.45;7.47;;;6.00;99.90;;;;;;5050428;28;20035;-58
2022/01/19 14:22:27;;;;;;;11.68;8.02;;;6.00;99.90;;;;;;5050668;28;20111;-55
2022/01/19 14:25:22;;;;;;;10.40;7.28;;;6.00;99.90;;;;;;5053827;28;20408;-56
2022/01/19 14:28:16;;;;;;;12.02;7.63;;;6.10;99.90;;;;;;5045311;28;20511;-53
2022/01/19 14:31:05;;;;;;;10.15;7.68;;;5.90;99.90;;;;;;5055424;28;20043;-56
2022/01/19 14:33:50;;;;;;;11.00;7.07;;;5.90;99.90;;;;;;5055434;28;20040;-54
2022/01/19 14:36:35;;;;;;;10.20;7.03;;;5.80;99.90;;;;;;5055758;28;20530;-56
2022/01/19 14:39:19;;;;;;;13.30;6.75;;;5.70;99.90;;;;;;5055559;28;20119;-54
2022/01/19 14:42:09;;;;;;;11.55;7.00;;;5.80;99.90;;;;;;5054608;28;20040;-54
2022/01/19 14:45:03;;;;;;;9.18;6.70;;;5.70;99.90;;;;;;5055624;28;20051;-55
2022/01/19 14:47:48;;;;;;;10.98;6.65;;;5.70;99.90;;;;;;5055562;28;20094;-54
2022/01/19 14:50:34;;;;;;;11.73;7.30;;;5.70;99.90;;;;;;5055368;28;20093;-58
2022/01/19 14:53:19;;;;;;;10.52;6.30;;;5.70;99.90;;;;;;5055192;28;20079;-56
2022/01/19 14:56:03;;;;;;;13.10;7.50;;;5.70;99.90;;;;;;5054298;28;20040;-58
2022/01/19 14:59:17;;;;;;;12.80;8.20;;;5.70;99.90;;;;;;5055419;28;20451;-55
2022/01/19 15:02:03;;;;;;;12.25;7.43;;;5.60;99.90;;;;;;5054787;28;20040;-56
2022/01/19 15:04:47;;;;;;;;;;;5.50;99.90;;;;;;5055962;28;20036;-54
2022/01/19 15:07:31;;;;;;;13.23;7.05;;;5.40;99.90;;;;;;5054404;28;19919;-55
2022/01/19 15:10:16;;;;;;;11.40;7.05;;;5.40;99.90;;;;;;5053957;28;20551;-55
2022/01/19 15:13:00;;;;;;;10.95;6.97;;;5.40;99.90;;;;;;5054938;28;20047;-52
2022/01/19 15:15:44;;;;;;;9.75;7.05;;;5.50;99.90;;;;;;5054055;28;20086;-53
2022/01/19 15:18:30;;;;;;;13.93;6.97;;;5.40;99.90;;;;;;5054607;28;20459;-55
2022/01/19 15:21:15;;;;;;;10.63;6.25;;;5.50;99.90;;;;;;5053200;28;20035;-57
2022/01/19 15:24:00;;;;;;;12.20;6.53;;;5.70;99.90;;;;;;5054246;28;20079;-55
2022/01/19 15:26:46;;;;;;;12.00;6.22;;;5.70;99.90;;;;;;5054524;28;20082;-50
2022/01/19 15:29:30;;;;;;;9.40;6.13;;;5.60;99.90;;;;;;5054971;28;20462;-57
2022/01/19 15:32:16;;;;;;;10.13;6.00;;;5.60;99.90;;;;;;5054668;28;20086;-55
2022/01/19 15:35:01;;;;;;;10.10;6.32;;;5.60;99.90;;;;;;5055415;28;20039;-56
2022/01/19 15:37:47;;;;;;;7.25;5.65;;;5.60;99.90;;;;;;5053855;28;20083;-56
2022/01/19 15:40:31;;;;;;;12.35;6.55;;;5.70;99.90;;;;;;5055019;28;20044;-56
2022/01/19 15:43:18;;;;;;;8.82;6.35;;;5.60;99.90;;;;;;5054589;28;20039;-55
2022/01/19 15:46:03;;;;;;;10.90;6.55;;;5.60;99.90;;;;;;5054938;28;20044;-57
2022/01/19 15:48:47;;;;;;;13.55;7.15;;;5.60;99.90;;;;;;5055704;28;20036;-56
2022/01/19 15:51:31;;;;;;;9.30;6.90;;;5.60;99.90;;;;;;5054420;28;20060;-56
2022/01/19 15:54:16;;;;;;;9.50;6.82;;;5.60;99.90;;;;;;5053460;28;20040;-55
2022/01/19 15:57:02;;;;;;;12.65;6.95;;;5.50;99.90;;;;;;5054587;28;20094;-56
2022/01/19 15:59:47;;;;;;;11.80;7.20;;;5.50;99.90;;;;;;5053664;28;20134;-59
2022/01/19 16:02:31;;;;;;;;;;;5.50;99.90;;;;;;5039532;28;20036;-56
2022/01/19 16:05:15;;;;;;;11.77;6.15;;;5.50;99.90;;;;;;5054618;28;20030;-55
2022/01/19 16:08:10;;;;;;;7.15;6.07;;;5.50;99.90;;;;;;5053646;28;20064;-57
2022/01/19 16:11:01;;;;;;;11.70;7.35;;;5.50;99.90;;;;;;5054676;28;20515;-56